San Fidel, NM (87049)

5:09 AM MST on February 10, 2016 (GMT -0700)
Grants-Milan Municipal | | Change Station
CLOSE
Current Station
Airport
Location: Grants-Milan,
Elevation: 6519 ft
Nearby Weather Stations

Elev 6519 ft 35.17 °N, 107.90 °W | Updated 14 minutes ago

Clear
Clear
18 °F
Feels Like 11 °F
N
5
Wind Variable Wind from NW

Today
High -- | Low -- °F
--% Chance of Precip.
Yesterday
High -- | Low -- °F
Precip. -- in
Pressure 30.46 in
Visibility 10.0 miles
Clouds Clear
Windchill 11 °F
Dew Point 14 °F
Humidity 83%
Rainfall 0.00 in
Snow Depth Not available.
7:01 AM 5:47 PM
Waxing Crescent, 5% visible
METAR KGNT 101155Z AUTO 31004KT 10SM CLR M08/M10 A3046 RMK AO2 T10771101 11043 21101
Pressure 30.46 in
Visibility 10.0 miles
Clouds Clear
Windchill 11 °F
Dew Point 14 °F
Humidity 83%
Rainfall 0.00 in
Snow Depth Not available.
7:01 AM 5:47 PM
Waxing Crescent, 5% visible
METAR KGNT 101155Z AUTO 31004KT 10SM CLR M08/M10 A3046 RMK AO2 T10771101 11043 21101

10-Day Weather Forecast

Almanac

Astronomy

Feb. 10, 2016 Rise Set
Actual Time
Civil Twilight
Nautical Twilight
Astronomical Twilight
Moon
Length of Visible Light
Length of Day
Tomorrow will be .
, % of the Moon is Illuminated

Today's Extremes

State Highs State Lows

Community

WunderPhotos

Upload Photos

1,891,834 photos uploaded!

WunderBlog® & News

Nearby

Air Quality

  Air Quality AQ Index Pollutant
Not available.

Snow Depth

Station Depth Elevation

Earthquake Activity

City Distance Mag. Time & Date
Minimum magnitude displayed is 2.5.

Coastal Water Temperatures

Place Temperature

Stations

Nearby Weather Stations

Station Location Temp. Windchill Dew Point Humidity Wind Precip. Elev Updated Type
                   

Watches & Warnings

There are currently no watches in effect.